Rowayton, Connecticut
Current Conditions -  °F | °C
As of 4:56 AM on Friday 21 Nov 2014 (Local Time) from KHPN Reporting Station
Clear Clear  
Wind Chill: 16°   Ceiling: Unl
Heat Index: 26°   Visibility: 10mi
Dew Point:   Wind: 10mph
Humidity: 47%   Direction: 290°WNW
Pressure: 30.08"   Gusts: NA
Location:  41.0695°N, 73.4379°W
Report Text: KHPN 210956Z 29009KT 10SM CLR M03/M13 A3008 RMK AO2 SLP195 T10331133
Loading
Personal Weather Stations






























Interactive Weather Map New forecast layout! Learn more

10-Day Weather Forecast

Advertisements
Track Severe Weather on mobile